sensor_id;sensor_type;location;lat;lon;timestamp;P1;durP1;ratioP1;P2;durP2;ratioP2
23146;SDS011;11742;53.532;-1.478;2022-11-20T00:02:00;14.80;;;7.20;;
23146;SDS011;11742;53.532;-1.478;2022-11-20T00:04:26;11.98;;;6.60;;
23146;SDS011;11742;53.532;-1.478;2022-11-20T00:06:52;13.13;;;7.70;;
23146;SDS011;11742;53.532;-1.478;2022-11-20T00:09:17;11.90;;;7.18;;
23146;SDS011;11742;53.532;-1.478;2022-11-20T00:11:43;13.85;;;6.75;;
23146;SDS011;11742;53.532;-1.478;2022-11-20T00:14:09;11.80;;;6.70;;
23146;SDS011;11742;53.532;-1.478;2022-11-20T00:16:35;13.68;;;7.55;;
23146;SDS011;11742;53.532;-1.478;2022-11-20T00:19:00;12.38;;;7.47;;
23146;SDS011;11742;53.532;-1.478;2022-11-20T00:21:27;12.68;;;6.93;;
23146;SDS011;11742;53.532;-1.478;2022-11-20T00:23:55;13.25;;;7.00;;
23146;SDS011;11742;53.532;-1.478;2022-11-20T00:26:22;12.18;;;5.93;;
23146;SDS011;11742;53.532;-1.478;2022-11-20T00:28:53;14.65;;;6.47;;
23146;SDS011;11742;53.532;-1.478;2022-11-20T00:31:21;9.60;;;5.85;;
23146;SDS011;11742;53.532;-1.478;2022-11-20T00:33:47;11.98;;;6.60;;
23146;SDS011;11742;53.532;-1.478;2022-11-20T00:36:21;9.43;;;5.38;;
23146;SDS011;11742;53.532;-1.478;2022-11-20T00:38:50;12.80;;;6.85;;
23146;SDS011;11742;53.532;-1.478;2022-11-20T00:41:20;12.37;;;6.17;;
23146;SDS011;11742;53.532;-1.478;2022-11-20T00:43:47;9.18;;;5.60;;
23146;SDS011;11742;53.532;-1.478;2022-11-20T00:46:17;9.80;;;5.90;;
23146;SDS011;11742;53.532;-1.478;2022-11-20T00:48:44;10.85;;;5.80;;
23146;SDS011;11742;53.532;-1.478;2022-11-20T00:51:11;11.77;;;5.85;;
23146;SDS011;11742;53.532;-1.478;2022-11-20T00:53:38;11.82;;;6.15;;
23146;SDS011;11742;53.532;-1.478;2022-11-20T00:56:05;10.13;;;5.68;;
23146;SDS011;11742;53.532;-1.478;2022-11-20T00:58:36;10.20;;;5.57;;
23146;SDS011;11742;53.532;-1.478;2022-11-20T01:01:04;7.85;;;5.50;;
23146;SDS011;11742;53.532;-1.478;2022-11-20T01:03:30;7.20;;;4.93;;
23146;SDS011;11742;53.532;-1.478;2022-11-20T01:06:01;8.40;;;5.07;;
23146;SDS011;11742;53.532;-1.478;2022-11-20T01:08:36;9.88;;;5.30;;
23146;SDS011;11742;53.532;-1.478;2022-11-20T01:11:06;10.05;;;5.45;;
23146;SDS011;11742;53.532;-1.478;2022-11-20T01:13:34;8.50;;;5.13;;
23146;SDS011;11742;53.532;-1.478;2022-11-20T01:16:08;10.15;;;5.88;;
23146;SDS011;11742;53.532;-1.478;2022-11-20T01:18:39;9.30;;;5.60;;
23146;SDS011;11742;53.532;-1.478;2022-11-20T01:21:08;12.18;;;5.68;;
23146;SDS011;11742;53.532;-1.478;2022-11-20T01:23:40;10.35;;;5.00;;
23146;SDS011;11742;53.532;-1.478;2022-11-20T01:26:07;9.38;;;5.75;;
23146;SDS011;11742;53.532;-1.478;2022-11-20T01:28:38;8.32;;;5.72;;
23146;SDS011;11742;53.532;-1.478;2022-11-20T01:31:37;10.95;;;6.13;;
23146;SDS011;11742;53.532;-1.478;2022-11-20T01:33:58;8.77;;;5.30;;
23146;SDS011;11742;53.532;-1.478;2022-11-20T01:36:26;10.13;;;5.93;;
23146;SDS011;11742;53.532;-1.478;2022-11-20T01:38:57;10.55;;;5.72;;
23146;SDS011;11742;53.532;-1.478;2022-11-20T01:41:25;13.90;;;6.65;;
23146;SDS011;11742;53.532;-1.478;2022-11-20T01:44:10;8.85;;;5.50;;
23146;SDS011;11742;53.532;-1.478;2022-11-20T01:46:40;11.48;;;5.40;;
23146;SDS011;11742;53.532;-1.478;2022-11-20T01:49:16;7.57;;;5.03;;
23146;SDS011;11742;53.532;-1.478;2022-11-20T01:51:50;10.27;;;6.40;;
23146;SDS011;11742;53.532;-1.478;2022-11-20T01:54:38;10.98;;;5.82;;
23146;SDS011;11742;53.532;-1.478;2022-11-20T01:57:19;11.77;;;5.95;;
23146;SDS011;11742;53.532;-1.478;2022-11-20T01:59:47;9.98;;;5.78;;
23146;SDS011;11742;53.532;-1.478;2022-11-20T02:02:19;12.40;;;5.97;;
23146;SDS011;11742;53.532;-1.478;2022-11-20T02:04:46;8.38;;;5.20;;
23146;SDS011;11742;53.532;-1.478;2022-11-20T02:07:14;10.55;;;6.20;;
23146;SDS011;11742;53.532;-1.478;2022-11-20T02:09:40;12.13;;;5.78;;
23146;SDS011;11742;53.532;-1.478;2022-11-20T02:12:06;12.15;;;6.85;;
23146;SDS011;11742;53.532;-1.478;2022-11-20T02:14:52;9.68;;;6.07;;
23146;SDS011;11742;53.532;-1.478;2022-11-20T02:17:17;13.80;;;5.68;;
23146;SDS011;11742;53.532;-1.478;2022-11-20T02:19:43;11.75;;;6.00;;
23146;SDS011;11742;53.532;-1.478;2022-11-20T02:22:19;9.90;;;5.55;;
23146;SDS011;11742;53.532;-1.478;2022-11-20T02:24:53;10.48;;;5.22;;
23146;SDS011;11742;53.532;-1.478;2022-11-20T02:27:19;11.68;;;5.10;;
23146;SDS011;11742;53.532;-1.478;2022-11-20T02:29:53;12.52;;;6.20;;
23146;SDS011;11742;53.532;-1.478;2022-11-20T02:34:52;11.90;;;6.63;;
23146;SDS011;11742;53.532;-1.478;2022-11-20T02:37:18;16.95;;;6.65;;
23146;SDS011;11742;53.532;-1.478;2022-11-20T02:39:46;11.27;;;6.47;;
23146;SDS011;11742;53.532;-1.478;2022-11-20T02:42:14;9.88;;;4.75;;
23146;SDS011;11742;53.532;-1.478;2022-11-20T02:44:40;11.57;;;5.95;;
23146;SDS011;11742;53.532;-1.478;2022-11-20T02:47:06;10.90;;;5.40;;
23146;SDS011;11742;53.532;-1.478;2022-11-20T02:49:31;9.50;;;4.97;;
23146;SDS011;11742;53.532;-1.478;2022-11-20T02:51:58;9.95;;;5.20;;
23146;SDS011;11742;53.532;-1.478;2022-11-20T02:54:23;11.07;;;5.60;;
23146;SDS011;11742;53.532;-1.478;2022-11-20T02:56:49;11.43;;;4.90;;
23146;SDS011;11742;53.532;-1.478;2022-11-20T02:59:15;9.95;;;4.90;;
23146;SDS011;11742;53.532;-1.478;2022-11-20T03:01:41;15.30;;;6.20;;
23146;SDS011;11742;53.532;-1.478;2022-11-20T03:04:07;11.27;;;5.50;;
23146;SDS011;11742;53.532;-1.478;2022-11-20T03:06:33;7.30;;;4.70;;
23146;SDS011;11742;53.532;-1.478;2022-11-20T03:08:58;9.93;;;5.68;;
23146;SDS011;11742;53.532;-1.478;2022-11-20T03:11:24;11.43;;;5.35;;
23146;SDS011;11742;53.532;-1.478;2022-11-20T03:13:50;13.75;;;5.20;;
23146;SDS011;11742;53.532;-1.478;2022-11-20T03:16:17;10.15;;;5.00;;
23146;SDS011;11742;53.532;-1.478;2022-11-20T03:18:44;11.10;;;5.40;;
23146;SDS011;11742;53.532;-1.478;2022-11-20T03:21:11;10.40;;;5.45;;
23146;SDS011;11742;53.532;-1.478;2022-11-20T03:23:38;10.75;;;5.70;;
23146;SDS011;11742;53.532;-1.478;2022-11-20T03:26:11;11.20;;;4.78;;
23146;SDS011;11742;53.532;-1.478;2022-11-20T03:28:42;10.98;;;4.75;;
23146;SDS011;11742;53.532;-1.478;2022-11-20T03:31:13;10.20;;;4.78;;
23146;SDS011;11742;53.532;-1.478;2022-11-20T03:33:39;10.50;;;4.80;;
23146;SDS011;11742;53.532;-1.478;2022-11-20T03:36:07;8.10;;;4.70;;
23146;SDS011;11742;53.532;-1.478;2022-11-20T03:38:34;8.65;;;4.28;;
23146;SDS011;11742;53.532;-1.478;2022-11-20T03:41:01;7.38;;;4.30;;
23146;SDS011;11742;53.532;-1.478;2022-11-20T03:43:29;11.25;;;5.10;;
23146;SDS011;11742;53.532;-1.478;2022-11-20T03:45:55;9.02;;;4.90;;
23146;SDS011;11742;53.532;-1.478;2022-11-20T03:48:21;7.07;;;4.03;;
23146;SDS011;11742;53.532;-1.478;2022-11-20T03:50:46;8.27;;;4.68;;
23146;SDS011;11742;53.532;-1.478;2022-11-20T03:53:13;6.97;;;3.38;;
23146;SDS011;11742;53.532;-1.478;2022-11-20T03:55:39;7.97;;;3.95;;
23146;SDS011;11742;53.532;-1.478;2022-11-20T03:58:05;8.80;;;4.38;;
23146;SDS011;11742;53.532;-1.478;2022-11-20T04:00:30;7.57;;;4.57;;
23146;SDS011;11742;53.532;-1.478;2022-11-20T04:02:59;8.75;;;4.30;;
23146;SDS011;11742;53.532;-1.478;2022-11-20T04:05:28;9.10;;;4.35;;
23146;SDS011;11742;53.532;-1.478;2022-11-20T04:07:54;9.32;;;3.75;;
23146;SDS011;11742;53.532;-1.478;2022-11-20T04:10:19;5.88;;;3.80;;
23146;SDS011;11742;53.532;-1.478;2022-11-20T04:12:45;7.63;;;3.95;;
23146;SDS011;11742;53.532;-1.478;2022-11-20T04:15:11;7.32;;;3.92;;
23146;SDS011;11742;53.532;-1.478;2022-11-20T04:17:37;8.07;;;4.40;;
23146;SDS011;11742;53.532;-1.478;2022-11-20T04:20:02;9.02;;;4.13;;
23146;SDS011;11742;53.532;-1.478;2022-11-20T04:22:28;6.47;;;3.88;;
23146;SDS011;11742;53.532;-1.478;2022-11-20T04:24:54;6.05;;;3.72;;
23146;SDS011;11742;53.532;-1.478;2022-11-20T04:27:20;8.32;;;3.70;;
23146;SDS011;11742;53.532;-1.478;2022-11-20T04:29:45;6.68;;;3.72;;
23146;SDS011;11742;53.532;-1.478;2022-11-20T04:32:11;5.68;;;3.30;;
23146;SDS011;11742;53.532;-1.478;2022-11-20T04:34:37;6.13;;;3.20;;
23146;SDS011;11742;53.532;-1.478;2022-11-20T04:37:02;6.75;;;3.28;;
23146;SDS011;11742;53.532;-1.478;2022-11-20T04:39:28;9.60;;;2.90;;
23146;SDS011;11742;53.532;-1.478;2022-11-20T04:41:54;5.13;;;2.90;;
23146;SDS011;11742;53.532;-1.478;2022-11-20T04:44:39;8.52;;;2.95;;
23146;SDS011;11742;53.532;-1.478;2022-11-20T04:47:05;5.32;;;2.70;;
23146;SDS011;11742;53.532;-1.478;2022-11-20T04:49:30;4.10;;;2.30;;
23146;SDS011;11742;53.532;-1.478;2022-11-20T04:51:57;6.70;;;2.90;;
23146;SDS011;11742;53.532;-1.478;2022-11-20T04:54:23;5.75;;;2.70;;
23146;SDS011;11742;53.532;-1.478;2022-11-20T04:56:48;8.20;;;2.85;;
23146;SDS011;11742;53.532;-1.478;2022-11-20T04:59:14;6.38;;;2.92;;
23146;SDS011;11742;53.532;-1.478;2022-11-20T05:01:40;3.47;;;2.70;;
23146;SDS011;11742;53.532;-1.478;2022-11-20T05:04:06;4.82;;;2.20;;
23146;SDS011;11742;53.532;-1.478;2022-11-20T05:06:33;4.28;;;2.53;;
23146;SDS011;11742;53.532;-1.478;2022-11-20T05:08:59;3.97;;;2.17;;
23146;SDS011;11742;53.532;-1.478;2022-11-20T05:11:26;3.90;;;1.90;;
23146;SDS011;11742;53.532;-1.478;2022-11-20T05:13:54;3.63;;;2.22;;
23146;SDS011;11742;53.532;-1.478;2022-11-20T05:16:20;3.53;;;2.30;;
23146;SDS011;11742;53.532;-1.478;2022-11-20T05:18:48;3.95;;;2.10;;
23146;SDS011;11742;53.532;-1.478;2022-11-20T05:21:14;2.72;;;2.03;;
23146;SDS011;11742;53.532;-1.478;2022-11-20T05:23:40;2.67;;;1.73;;
23146;SDS011;11742;53.532;-1.478;2022-11-20T05:26:07;2.53;;;1.67;;
23146;SDS011;11742;53.532;-1.478;2022-11-20T05:28:37;3.65;;;1.85;;
23146;SDS011;11742;53.532;-1.478;2022-11-20T05:31:10;3.05;;;1.80;;
23146;SDS011;11742;53.532;-1.478;2022-11-20T05:33:39;3.88;;;1.58;;
23146;SDS011;11742;53.532;-1.478;2022-11-20T05:36:05;2.30;;;1.52;;
23146;SDS011;11742;53.532;-1.478;2022-11-20T05:38:32;3.08;;;1.65;;
23146;SDS011;11742;53.532;-1.478;2022-11-20T05:41:16;2.25;;;1.42;;
23146;SDS011;11742;53.532;-1.478;2022-11-20T05:43:43;1.48;;;1.38;;
23146;SDS011;11742;53.532;-1.478;2022-11-20T05:46:11;2.50;;;1.50;;
23146;SDS011;11742;53.532;-1.478;2022-11-20T05:48:39;2.55;;;1.63;;
23146;SDS011;11742;53.532;-1.478;2022-11-20T05:51:07;2.92;;;1.40;;
23146;SDS011;11742;53.532;-1.478;2022-11-20T05:53:34;3.47;;;1.40;;
23146;SDS011;11742;53.532;-1.478;2022-11-20T05:56:01;2.03;;;1.20;;
23146;SDS011;11742;53.532;-1.478;2022-11-20T05:58:31;1.77;;;1.30;;
23146;SDS011;11742;53.532;-1.478;2022-11-20T06:03:43;1.90;;;1.23;;
23146;SDS011;11742;53.532;-1.478;2022-11-20T06:06:13;1.45;;;1.02;;
23146;SDS011;11742;53.532;-1.478;2022-11-20T06:08:39;1.50;;;1.05;;
23146;SDS011;11742;53.532;-1.478;2022-11-20T06:11:05;1.70;;;1.02;;
23146;SDS011;11742;53.532;-1.478;2022-11-20T06:13:35;1.75;;;1.08;;
23146;SDS011;11742;53.532;-1.478;2022-11-20T06:16:01;2.72;;;1.23;;
23146;SDS011;11742;53.532;-1.478;2022-11-20T06:18:28;2.30;;;1.00;;
23146;SDS011;11742;53.532;-1.478;2022-11-20T06:21:04;1.73;;;1.20;;
23146;SDS011;11742;53.532;-1.478;2022-11-20T06:23:31;1.38;;;0.93;;
23146;SDS011;11742;53.532;-1.478;2022-11-20T06:26:00;0.90;;;0.82;;
23146;SDS011;11742;53.532;-1.478;2022-11-20T06:28:31;1.85;;;1.10;;
23146;SDS011;11742;53.532;-1.478;2022-11-20T06:30:57;0.70;;;0.70;;
23146;SDS011;11742;53.532;-1.478;2022-11-20T06:33:22;1.48;;;1.25;;
23146;SDS011;11742;53.532;-1.478;2022-11-20T06:35:48;1.58;;;0.90;;
23146;SDS011;11742;53.532;-1.478;2022-11-20T06:38:14;0.95;;;0.85;;
23146;SDS011;11742;53.532;-1.478;2022-11-20T06:40:40;1.00;;;0.80;;
23146;SDS011;11742;53.532;-1.478;2022-11-20T06:43:06;1.45;;;0.90;;
23146;SDS011;11742;53.532;-1.478;2022-11-20T06:45:32;1.05;;;0.80;;
23146;SDS011;11742;53.532;-1.478;2022-11-20T06:47:58;1.15;;;0.90;;
23146;SDS011;11742;53.532;-1.478;2022-11-20T06:50:23;0.77;;;0.70;;
23146;SDS011;11742;53.532;-1.478;2022-11-20T06:52:49;0.98;;;0.80;;
23146;SDS011;11742;53.532;-1.478;2022-11-20T06:55:15;1.05;;;0.93;;
23146;SDS011;11742;53.532;-1.478;2022-11-20T06:57:40;1.55;;;0.80;;
23146;SDS011;11742;53.532;-1.478;2022-11-20T07:00:06;0.77;;;0.70;;
23146;SDS011;11742;53.532;-1.478;2022-11-20T07:02:32;0.85;;;0.85;;
23146;SDS011;11742;53.532;-1.478;2022-11-20T07:04:58;0.60;;;0.60;;
23146;SDS011;11742;53.532;-1.478;2022-11-20T07:07:23;2.10;;;0.73;;
23146;SDS011;11742;53.532;-1.478;2022-11-20T07:09:49;0.70;;;0.60;;
23146;SDS011;11742;53.532;-1.478;2022-11-20T07:12:14;0.70;;;0.68;;
23146;SDS011;11742;53.532;-1.478;2022-11-20T07:14:40;1.30;;;0.77;;
23146;SDS011;11742;53.532;-1.478;2022-11-20T07:17:06;0.75;;;0.75;;
23146;SDS011;11742;53.532;-1.478;2022-11-20T07:19:32;0.63;;;0.63;;
23146;SDS011;11742;53.532;-1.478;2022-11-20T07:21:57;1.25;;;0.65;;
23146;SDS011;11742;53.532;-1.478;2022-11-20T07:24:23;1.65;;;0.68;;
23146;SDS011;11742;53.532;-1.478;2022-11-20T07:26:49;0.60;;;0.60;;
23146;SDS011;11742;53.532;-1.478;2022-11-20T07:29:15;0.68;;;0.60;;
23146;SDS011;11742;53.532;-1.478;2022-11-20T07:31:41;0.70;;;0.70;;
23146;SDS011;11742;53.532;-1.478;2022-11-20T07:34:07;0.77;;;0.70;;
23146;SDS011;11742;53.532;-1.478;2022-11-20T07:36:33;0.73;;;0.73;;
23146;SDS011;11742;53.532;-1.478;2022-11-20T07:38:59;2.00;;;0.73;;
23146;SDS011;11742;53.532;-1.478;2022-11-20T07:41:24;0.60;;;0.60;;
23146;SDS011;11742;53.532;-1.478;2022-11-20T07:43:50;1.25;;;0.65;;
23146;SDS011;11742;53.532;-1.478;2022-11-20T07:46:16;1.60;;;0.90;;
23146;SDS011;11742;53.532;-1.478;2022-11-20T07:48:42;1.45;;;0.70;;
23146;SDS011;11742;53.532;-1.478;2022-11-20T07:51:07;0.75;;;0.70;;
23146;SDS011;11742;53.532;-1.478;2022-11-20T07:53:33;1.77;;;0.90;;
23146;SDS011;11742;53.532;-1.478;2022-11-20T07:55:59;0.75;;;0.68;;
23146;SDS011;11742;53.532;-1.478;2022-11-20T07:58:26;1.35;;;0.90;;
23146;SDS011;11742;53.532;-1.478;2022-11-20T08:00:53;0.77;;;0.77;;
23146;SDS011;11742;53.532;-1.478;2022-11-20T08:03:19;1.25;;;0.73;;
23146;SDS011;11742;53.532;-1.478;2022-11-20T08:05:44;1.58;;;0.80;;
23146;SDS011;11742;53.532;-1.478;2022-11-20T08:08:10;3.17;;;1.00;;
23146;SDS011;11742;53.532;-1.478;2022-11-20T08:10:36;1.52;;;0.90;;
23146;SDS011;11742;53.532;-1.478;2022-11-20T08:13:01;1.27;;;1.05;;
23146;SDS011;11742;53.532;-1.478;2022-11-20T08:15:56;1.80;;;1.23;;
23146;SDS011;11742;53.532;-1.478;2022-11-20T08:18:22;1.20;;;0.90;;
23146;SDS011;11742;53.532;-1.478;2022-11-20T08:20:47;0.73;;;0.73;;
23146;SDS011;11742;53.532;-1.478;2022-11-20T08:23:13;1.70;;;1.23;;
23146;SDS011;11742;53.532;-1.478;2022-11-20T08:25:39;1.38;;;0.90;;
23146;SDS011;11742;53.532;-1.478;2022-11-20T08:28:06;0.95;;;0.93;;
23146;SDS011;11742;53.532;-1.478;2022-11-20T08:30:33;1.27;;;0.90;;
23146;SDS011;11742;53.532;-1.478;2022-11-20T08:33:00;1.58;;;0.88;;
23146;SDS011;11742;53.532;-1.478;2022-11-20T08:35:28;1.10;;;0.80;;
23146;SDS011;11742;53.532;-1.478;2022-11-20T08:37:53;1.40;;;1.00;;
23146;SDS011;11742;53.532;-1.478;2022-11-20T08:40:19;1.55;;;0.90;;
23146;SDS011;11742;53.532;-1.478;2022-11-20T08:42:48;2.95;;;1.20;;
23146;SDS011;11742;53.532;-1.478;2022-11-20T08:45:14;1.25;;;1.00;;
23146;SDS011;11742;53.532;-1.478;2022-11-20T08:47:41;2.38;;;1.00;;
23146;SDS011;11742;53.532;-1.478;2022-11-20T08:50:07;1.02;;;0.85;;
23146;SDS011;11742;53.532;-1.478;2022-11-20T08:52:34;0.80;;;0.75;;
23146;SDS011;11742;53.532;-1.478;2022-11-20T08:54:59;1.85;;;1.08;;
23146;SDS011;11742;53.532;-1.478;2022-11-20T08:57:25;0.82;;;0.70;;
23146;SDS011;11742;53.532;-1.478;2022-11-20T08:59:51;1.23;;;0.85;;
23146;SDS011;11742;53.532;-1.478;2022-11-20T09:02:16;1.15;;;0.77;;
23146;SDS011;11742;53.532;-1.478;2022-11-20T09:04:42;1.92;;;0.75;;
23146;SDS011;11742;53.532;-1.478;2022-11-20T09:07:08;0.90;;;0.75;;
23146;SDS011;11742;53.532;-1.478;2022-11-20T09:09:33;1.02;;;0.80;;
23146;SDS011;11742;53.532;-1.478;2022-11-20T09:11:59;0.75;;;0.73;;
23146;SDS011;11742;53.532;-1.478;2022-11-20T09:14:25;1.48;;;0.80;;
23146;SDS011;11742;53.532;-1.478;2022-11-20T09:16:54;2.28;;;0.90;;
23146;SDS011;11742;53.532;-1.478;2022-11-20T09:19:20;1.42;;;0.80;;
23146;SDS011;11742;53.532;-1.478;2022-11-20T09:21:46;1.30;;;0.80;;
23146;SDS011;11742;53.532;-1.478;2022-11-20T09:24:11;3.13;;;0.80;;
23146;SDS011;11742;53.532;-1.478;2022-11-20T09:26:37;1.15;;;0.65;;
23146;SDS011;11742;53.532;-1.478;2022-11-20T09:29:03;0.80;;;0.73;;
23146;SDS011;11742;53.532;-1.478;2022-11-20T09:31:28;1.23;;;0.90;;
23146;SDS011;11742;53.532;-1.478;2022-11-20T09:33:54;0.93;;;0.80;;
23146;SDS011;11742;53.532;-1.478;2022-11-20T09:36:20;2.35;;;1.00;;
23146;SDS011;11742;53.532;-1.478;2022-11-20T09:38:46;2.72;;;1.40;;
23146;SDS011;11742;53.532;-1.478;2022-11-20T09:41:24;2.45;;;0.98;;
23146;SDS011;11742;53.532;-1.478;2022-11-20T09:44:05;1.85;;;0.70;;
23146;SDS011;11742;53.532;-1.478;2022-11-20T09:47:13;1.67;;;0.70;;
23146;SDS011;11742;53.532;-1.478;2022-11-20T09:52:51;0.90;;;0.77;;
23146;SDS011;11742;53.532;-1.478;2022-11-20T09:55:19;0.95;;;0.70;;
23146;SDS011;11742;53.532;-1.478;2022-11-20T09:57:45;2.70;;;0.90;;
23146;SDS011;11742;53.532;-1.478;2022-11-20T10:00:16;0.80;;;0.68;;
23146;SDS011;11742;53.532;-1.478;2022-11-20T10:02:53;0.95;;;0.70;;
23146;SDS011;11742;53.532;-1.478;2022-11-20T10:08:17;1.30;;;0.70;;
23146;SDS011;11742;53.532;-1.478;2022-11-20T10:10:56;1.23;;;0.82;;
23146;SDS011;11742;53.532;-1.478;2022-11-20T10:13:41;2.15;;;0.90;;
23146;SDS011;11742;53.532;-1.478;2022-11-20T10:21:54;1.92;;;0.77;;
23146;SDS011;11742;53.532;-1.478;2022-11-20T10:30:14;1.88;;;0.70;;
23146;SDS011;11742;53.532;-1.478;2022-11-20T10:32:46;1.55;;;0.82;;
23146;SDS011;11742;53.532;-1.478;2022-11-20T10:35:41;1.73;;;0.90;;
23146;SDS011;11742;53.532;-1.478;2022-11-20T10:38:13;1.30;;;0.70;;
23146;SDS011;11742;53.532;-1.478;2022-11-20T10:40:49;0.70;;;0.70;;
23146;SDS011;11742;53.532;-1.478;2022-11-20T10:43:39;0.70;;;0.70;;
23146;SDS011;11742;53.532;-1.478;2022-11-20T10:46:10;2.47;;;0.82;;
23146;SDS011;11742;53.532;-1.478;2022-11-20T10:48:41;2.00;;;0.85;;
23146;SDS011;11742;53.532;-1.478;2022-11-20T10:51:26;0.90;;;0.70;;
23146;SDS011;11742;53.532;-1.478;2022-11-20T10:54:25;1.95;;;0.80;;
23146;SDS011;11742;53.532;-1.478;2022-11-20T10:59:55;0.70;;;0.52;;
23146;SDS011;11742;53.532;-1.478;2022-11-20T11:02:41;2.45;;;1.05;;
23146;SDS011;11742;53.532;-1.478;2022-11-20T11:05:46;1.58;;;0.70;;
23146;SDS011;11742;53.532;-1.478;2022-11-20T11:08:14;1.98;;;0.82;;
23146;SDS011;11742;53.532;-1.478;2022-11-20T11:10:53;3.65;;;0.77;;
23146;SDS011;11742;53.532;-1.478;2022-11-20T11:13:27;2.30;;;0.65;;
23146;SDS011;11742;53.532;-1.478;2022-11-20T11:15:54;2.38;;;0.70;;
23146;SDS011;11742;53.532;-1.478;2022-11-20T11:20:57;2.30;;;0.88;;
23146;SDS011;11742;53.532;-1.478;2022-11-20T11:26:02;24.92;;;2.70;;
23146;SDS011;11742;53.532;-1.478;2022-11-20T11:28:30;18.20;;;2.80;;
23146;SDS011;11742;53.532;-1.478;2022-11-20T11:30:56;13.13;;;2.38;;
23146;SDS011;11742;53.532;-1.478;2022-11-20T11:33:29;12.57;;;2.05;;
23146;SDS011;11742;53.532;-1.478;2022-11-20T11:36:03;22.05;;;2.65;;
23146;SDS011;11742;53.532;-1.478;2022-11-20T11:38:42;13.68;;;2.45;;
23146;SDS011;11742;53.532;-1.478;2022-11-20T11:41:09;11.70;;;2.08;;
23146;SDS011;11742;53.532;-1.478;2022-11-20T11:43:48;10.37;;;2.27;;
23146;SDS011;11742;53.532;-1.478;2022-11-20T11:46:44;10.85;;;1.95;;
23146;SDS011;11742;53.532;-1.478;2022-11-20T11:49:18;10.20;;;1.95;;
23146;SDS011;11742;53.532;-1.478;2022-11-20T11:52:05;11.73;;;2.28;;
23146;SDS011;11742;53.532;-1.478;2022-11-20T11:57:36;12.35;;;2.20;;
23146;SDS011;11742;53.532;-1.478;2022-11-20T12:00:11;7.57;;;1.63;;
23146;SDS011;11742;53.532;-1.478;2022-11-20T12:05:15;7.45;;;1.85;;
23146;SDS011;11742;53.532;-1.478;2022-11-20T12:07:49;9.18;;;1.50;;
23146;SDS011;11742;53.532;-1.478;2022-11-20T12:10:18;9.32;;;1.90;;
23146;SDS011;11742;53.532;-1.478;2022-11-20T12:13:14;5.97;;;1.50;;
23146;SDS011;11742;53.532;-1.478;2022-11-20T12:15:44;9.25;;;2.05;;
23146;SDS011;11742;53.532;-1.478;2022-11-20T12:18:14;7.00;;;1.70;;
23146;SDS011;11742;53.532;-1.478;2022-11-20T12:20:53;6.68;;;1.55;;
23146;SDS011;11742;53.532;-1.478;2022-11-20T12:23:27;15.00;;;2.75;;
23146;SDS011;11742;53.532;-1.478;2022-11-20T12:26:02;16.27;;;3.13;;
23146;SDS011;11742;53.532;-1.478;2022-11-20T12:33:54;13.68;;;2.60;;
23146;SDS011;11742;53.532;-1.478;2022-11-20T12:36:52;9.65;;;1.90;;
23146;SDS011;11742;53.532;-1.478;2022-11-20T12:39:34;7.53;;;1.92;;
23146;SDS011;11742;53.532;-1.478;2022-11-20T12:43:05;11.52;;;2.10;;
23146;SDS011;11742;53.532;-1.478;2022-11-20T12:48:19;13.88;;;2.75;;
23146;SDS011;11742;53.532;-1.478;2022-11-20T12:53:54;17.98;;;2.75;;
23146;SDS011;11742;53.532;-1.478;2022-11-20T12:56:35;18.48;;;2.72;;
23146;SDS011;11742;53.532;-1.478;2022-11-20T12:59:43;12.13;;;1.77;;
23146;SDS011;11742;53.532;-1.478;2022-11-20T13:07:50;6.80;;;1.50;;
23146;SDS011;11742;53.532;-1.478;2022-11-20T13:10:20;12.80;;;1.60;;
23146;SDS011;11742;53.532;-1.478;2022-11-20T13:16:12;5.50;;;1.50;;
23146;SDS011;11742;53.532;-1.478;2022-11-20T13:18:45;5.25;;;1.60;;
23146;SDS011;11742;53.532;-1.478;2022-11-20T13:21:18;4.93;;;1.27;;
23146;SDS011;11742;53.532;-1.478;2022-11-20T13:24:33;6.30;;;1.17;;
23146;SDS011;11742;53.532;-1.478;2022-11-20T13:34:54;6.72;;;1.27;;
23146;SDS011;11742;53.532;-1.478;2022-11-20T13:37:26;4.65;;;1.17;;
23146;SDS011;11742;53.532;-1.478;2022-11-20T13:42:43;3.58;;;1.20;;
23146;SDS011;11742;53.532;-1.478;2022-11-20T13:45:29;4.10;;;1.17;;
23146;SDS011;11742;53.532;-1.478;2022-11-20T13:47:56;5.07;;;1.50;;
23146;SDS011;11742;53.532;-1.478;2022-11-20T13:50:51;2.78;;;1.08;;
23146;SDS011;11742;53.532;-1.478;2022-11-20T13:56:05;4.35;;;1.75;;
23146;SDS011;11742;53.532;-1.478;2022-11-20T13:59:18;3.47;;;1.20;;
23146;SDS011;11742;53.532;-1.478;2022-11-20T14:01:57;3.97;;;1.25;;
23146;SDS011;11742;53.532;-1.478;2022-11-20T14:04:27;3.25;;;1.23;;
23146;SDS011;11742;53.532;-1.478;2022-11-20T14:06:57;5.55;;;1.40;;
23146;SDS011;11742;53.532;-1.478;2022-11-20T14:11:54;2.90;;;1.35;;
23146;SDS011;11742;53.532;-1.478;2022-11-20T14:14:21;3.45;;;1.23;;
23146;SDS011;11742;53.532;-1.478;2022-11-20T14:16:49;4.50;;;1.58;;
23146;SDS011;11742;53.532;-1.478;2022-11-20T14:19:22;5.00;;;1.70;;
23146;SDS011;11742;53.532;-1.478;2022-11-20T14:25:02;2.78;;;1.20;;
23146;SDS011;11742;53.532;-1.478;2022-11-20T14:27:36;4.03;;;1.17;;
23146;SDS011;11742;53.532;-1.478;2022-11-20T14:30:03;3.10;;;1.05;;
23146;SDS011;11742;53.532;-1.478;2022-11-20T14:32:30;5.93;;;1.45;;
23146;SDS011;11742;53.532;-1.478;2022-11-20T14:34:58;2.88;;;1.08;;
23146;SDS011;11742;53.532;-1.478;2022-11-20T14:37:33;4.90;;;1.38;;
23146;SDS011;11742;53.532;-1.478;2022-11-20T14:40:05;4.07;;;1.35;;
23146;SDS011;11742;53.532;-1.478;2022-11-20T14:42:47;4.05;;;1.83;;
23146;SDS011;11742;53.532;-1.478;2022-11-20T14:45:12;2.30;;;0.98;;
23146;SDS011;11742;53.532;-1.478;2022-11-20T14:47:39;5.03;;;1.10;;
23146;SDS011;11742;53.532;-1.478;2022-11-20T14:50:11;2.25;;;1.00;;
23146;SDS011;11742;53.532;-1.478;2022-11-20T14:52:49;3.75;;;1.00;;
23146;SDS011;11742;53.532;-1.478;2022-11-20T14:55:37;2.85;;;1.17;;
23146;SDS011;11742;53.532;-1.478;2022-11-20T14:58:19;5.20;;;1.13;;
23146;SDS011;11742;53.532;-1.478;2022-11-20T15:00:57;6.45;;;1.05;;
23146;SDS011;11742;53.532;-1.478;2022-11-20T15:03:34;3.70;;;1.15;;
23146;SDS011;11742;53.532;-1.478;2022-11-20T15:06:01;2.50;;;1.38;;
23146;SDS011;11742;53.532;-1.478;2022-11-20T15:08:27;3.13;;;1.35;;
23146;SDS011;11742;53.532;-1.478;2022-11-20T15:10:53;3.08;;;1.20;;
23146;SDS011;11742;53.532;-1.478;2022-11-20T15:13:29;3.30;;;1.25;;
23146;SDS011;11742;53.532;-1.478;2022-11-20T15:16:01;2.42;;;0.93;;
23146;SDS011;11742;53.532;-1.478;2022-11-20T15:18:32;2.97;;;1.60;;
23146;SDS011;11742;53.532;-1.478;2022-11-20T15:21:03;4.35;;;1.25;;
23146;SDS011;11742;53.532;-1.478;2022-11-20T15:23:34;1.88;;;1.10;;
23146;SDS011;11742;53.532;-1.478;2022-11-20T15:25:59;2.28;;;0.90;;
23146;SDS011;11742;53.532;-1.478;2022-11-20T15:28:39;3.63;;;1.00;;
23146;SDS011;11742;53.532;-1.478;2022-11-20T15:31:09;3.53;;;1.15;;
23146;SDS011;11742;53.532;-1.478;2022-11-20T15:33:37;4.00;;;1.10;;
23146;SDS011;11742;53.532;-1.478;2022-11-20T15:36:03;4.07;;;1.00;;
23146;SDS011;11742;53.532;-1.478;2022-11-20T15:38:29;3.47;;;1.20;;
23146;SDS011;11742;53.532;-1.478;2022-11-20T15:40:55;2.08;;;1.00;;
23146;SDS011;11742;53.532;-1.478;2022-11-20T15:43:21;3.00;;;1.20;;
23146;SDS011;11742;53.532;-1.478;2022-11-20T15:45:53;2.75;;;1.40;;
23146;SDS011;11742;53.532;-1.478;2022-11-20T15:48:27;4.07;;;0.98;;
23146;SDS011;11742;53.532;-1.478;2022-11-20T15:51:10;3.58;;;1.55;;
23146;SDS011;11742;53.532;-1.478;2022-11-20T15:53:43;2.40;;;1.17;;
23146;SDS011;11742;53.532;-1.478;2022-11-20T15:56:11;4.50;;;1.13;;
23146;SDS011;11742;53.532;-1.478;2022-11-20T15:58:38;4.70;;;1.58;;
23146;SDS011;11742;53.532;-1.478;2022-11-20T16:01:04;4.72;;;1.38;;
23146;SDS011;11742;53.532;-1.478;2022-11-20T16:03:30;4.15;;;0.90;;
23146;SDS011;11742;53.532;-1.478;2022-11-20T16:05:55;2.20;;;1.10;;